sensor_id;sensor_type;location;lat;lon;timestamp;noise_LAeq;noise_LA_min;noise_LA_max;noise_LA01;noise_LA95
45109;Laerm;30447;48.742;8.972;2023-09-07T00:01:32;38.14;33.90;41.46;;
45109;Laerm;30447;48.742;8.972;2023-09-07T00:03:59;38.33;33.90;41.14;;
45109;Laerm;30447;48.742;8.972;2023-09-07T00:06:25;38.32;33.90;51.40;;
45109;Laerm;30447;48.742;8.972;2023-09-07T00:08:53;38.03;33.90;41.61;;
45109;Laerm;30447;48.742;8.972;2023-09-07T00:11:19;38.02;33.90;46.05;;
45109;Laerm;30447;48.742;8.972;2023-09-07T00:13:46;37.82;33.44;42.41;;
45109;Laerm;30447;48.742;8.972;2023-09-07T00:16:13;37.66;33.90;41.61;;
45109;Laerm;30447;48.742;8.972;2023-09-07T00:18:39;37.92;32.93;42.93;;
45109;Laerm;30447;48.742;8.972;2023-09-07T00:21:06;37.60;33.90;40.23;;
45109;Laerm;30447;48.742;8.972;2023-09-07T00:23:32;38.13;33.90;40.80;;
45109;Laerm;30447;48.742;8.972;2023-09-07T00:25:59;37.95;34.31;40.71;;
45109;Laerm;30447;48.742;8.972;2023-09-07T00:28:26;37.62;32.93;42.03;;
45109;Laerm;30447;48.742;8.972;2023-09-07T00:30:52;37.89;32.93;43.19;;
45109;Laerm;30447;48.742;8.972;2023-09-07T00:33:19;37.58;33.90;40.62;;
45109;Laerm;30447;48.742;8.972;2023-09-07T00:35:45;46.00;35.04;56.23;;
45109;Laerm;30447;48.742;8.972;2023-09-07T00:38:12;38.68;34.31;43.24;;
45109;Laerm;30447;48.742;8.972;2023-09-07T00:40:43;38.00;33.44;41.82;;
45109;Laerm;30447;48.742;8.972;2023-09-07T00:43:11;37.94;33.44;41.75;;
45109;Laerm;30447;48.742;8.972;2023-09-07T00:45:39;37.71;33.44;44.94;;
45109;Laerm;30447;48.742;8.972;2023-09-07T00:48:06;37.65;33.90;50.03;;
45109;Laerm;30447;48.742;8.972;2023-09-07T00:50:33;37.77;33.55;42.88;;
45109;Laerm;30447;48.742;8.972;2023-09-07T00:53:01;37.60;32.93;42.35;;
45109;Laerm;30447;48.742;8.972;2023-09-07T00:55:29;37.62;33.44;41.53;;
45109;Laerm;30447;48.742;8.972;2023-09-07T00:57:59;37.82;33.44;40.80;;
45109;Laerm;30447;48.742;8.972;2023-09-07T01:00:26;38.25;34.69;41.22;;
45109;Laerm;30447;48.742;8.972;2023-09-07T01:02:52;37.80;32.93;41.30;;
45109;Laerm;30447;48.742;8.972;2023-09-07T01:05:30;38.05;34.31;41.46;;
45109;Laerm;30447;48.742;8.972;2023-09-07T01:08:12;38.43;34.31;42.09;;
45109;Laerm;30447;48.742;8.972;2023-09-07T01:10:41;38.79;34.31;42.29;;
45109;Laerm;30447;48.742;8.972;2023-09-07T01:13:08;45.88;34.31;57.41;;
45109;Laerm;30447;48.742;8.972;2023-09-07T01:15:34;40.17;33.90;47.08;;
45109;Laerm;30447;48.742;8.972;2023-09-07T01:18:03;37.63;33.44;41.06;;
45109;Laerm;30447;48.742;8.972;2023-09-07T01:20:32;37.48;32.93;40.80;;
45109;Laerm;30447;48.742;8.972;2023-09-07T01:23:03;38.20;34.31;46.38;;
45109;Laerm;30447;48.742;8.972;2023-09-07T01:25:31;38.41;33.90;41.68;;
45109;Laerm;30447;48.742;8.972;2023-09-07T01:27:58;38.54;33.90;42.76;;
45109;Laerm;30447;48.742;8.972;2023-09-07T01:30:27;38.20;34.69;40.71;;
45109;Laerm;30447;48.742;8.972;2023-09-07T01:32:54;38.33;34.69;41.06;;
45109;Laerm;30447;48.742;8.972;2023-09-07T01:35:23;39.52;35.04;56.55;;
45109;Laerm;30447;48.742;8.972;2023-09-07T01:37:50;38.76;34.69;43.39;;
45109;Laerm;30447;48.742;8.972;2023-09-07T01:40:17;38.41;33.44;42.03;;
45109;Laerm;30447;48.742;8.972;2023-09-07T01:42:43;39.01;34.69;57.85;;
45109;Laerm;30447;48.742;8.972;2023-09-07T01:45:10;38.30;34.69;42.22;;
45109;Laerm;30447;48.742;8.972;2023-09-07T01:47:37;38.52;35.04;41.46;;
45109;Laerm;30447;48.742;8.972;2023-09-07T01:50:04;38.48;34.31;42.71;;
45109;Laerm;30447;48.742;8.972;2023-09-07T01:52:31;38.71;35.04;42.16;;
45109;Laerm;30447;48.742;8.972;2023-09-07T01:54:57;38.51;35.04;42.71;;
45109;Laerm;30447;48.742;8.972;2023-09-07T01:57:24;38.82;35.04;42.47;;
45109;Laerm;30447;48.742;8.972;2023-09-07T01:59:51;38.11;33.44;51.03;;
45109;Laerm;30447;48.742;8.972;2023-09-07T02:02:17;38.10;34.31;41.06;;
45109;Laerm;30447;48.742;8.972;2023-09-07T02:04:44;38.60;34.69;41.22;;
45109;Laerm;30447;48.742;8.972;2023-09-07T02:07:12;39.30;35.04;56.26;;
45109;Laerm;30447;48.742;8.972;2023-09-07T02:09:41;38.75;35.01;42.76;;
45109;Laerm;30447;48.742;8.972;2023-09-07T02:12:08;38.44;34.69;41.38;;
45109;Laerm;30447;48.742;8.972;2023-09-07T02:14:34;38.06;34.31;40.71;;
45109;Laerm;30447;48.742;8.972;2023-09-07T02:17:01;38.26;34.31;48.70;;
45109;Laerm;30447;48.742;8.972;2023-09-07T02:19:27;38.66;34.31;42.47;;
45109;Laerm;30447;48.742;8.972;2023-09-07T02:21:54;38.22;34.31;42.35;;
45109;Laerm;30447;48.742;8.972;2023-09-07T02:24:21;38.02;33.90;41.68;;
45109;Laerm;30447;48.742;8.972;2023-09-07T02:26:47;38.35;33.90;41.46;;
45109;Laerm;30447;48.742;8.972;2023-09-07T02:29:14;39.11;34.69;44.43;;
45109;Laerm;30447;48.742;8.972;2023-09-07T02:31:40;39.04;35.04;41.96;;
45109;Laerm;30447;48.742;8.972;2023-09-07T02:34:07;39.86;35.94;43.29;;
45109;Laerm;30447;48.742;8.972;2023-09-07T02:36:34;39.93;35.36;44.43;;
45109;Laerm;30447;48.742;8.972;2023-09-07T02:39:02;40.23;35.04;43.72;;
45109;Laerm;30447;48.742;8.972;2023-09-07T02:41:31;38.55;34.69;41.61;;
45109;Laerm;30447;48.742;8.972;2023-09-07T02:43:57;38.81;35.04;43.81;;
45109;Laerm;30447;48.742;8.972;2023-09-07T02:46:24;38.79;35.36;41.68;;
45109;Laerm;30447;48.742;8.972;2023-09-07T02:48:51;38.82;34.69;42.03;;
45109;Laerm;30447;48.742;8.972;2023-09-07T02:51:17;38.95;35.04;41.96;;
45109;Laerm;30447;48.742;8.972;2023-09-07T02:53:44;39.48;35.66;42.41;;
45109;Laerm;30447;48.742;8.972;2023-09-07T02:56:11;39.71;36.20;43.19;;
45109;Laerm;30447;48.742;8.972;2023-09-07T02:58:37;39.32;34.69;42.47;;
45109;Laerm;30447;48.742;8.972;2023-09-07T03:01:08;39.35;35.94;42.09;;
45109;Laerm;30447;48.742;8.972;2023-09-07T03:03:37;39.54;36.45;43.04;;
45109;Laerm;30447;48.742;8.972;2023-09-07T03:06:11;39.52;35.94;42.93;;
45109;Laerm;30447;48.742;8.972;2023-09-07T03:08:40;38.92;35.36;42.93;;
45109;Laerm;30447;48.742;8.972;2023-09-07T03:11:08;39.14;34.31;42.53;;
45109;Laerm;30447;48.742;8.972;2023-09-07T03:13:35;39.86;36.45;59.87;;
45109;Laerm;30447;48.742;8.972;2023-09-07T03:16:03;40.03;36.91;43.49;;
45109;Laerm;30447;48.742;8.972;2023-09-07T03:18:31;40.67;36.91;45.33;;
45109;Laerm;30447;48.742;8.972;2023-09-07T03:21:00;40.60;37.52;42.88;;
45109;Laerm;30447;48.742;8.972;2023-09-07T03:23:29;40.91;37.88;45.72;;
45109;Laerm;30447;48.742;8.972;2023-09-07T03:25:58;40.82;37.88;43.63;;
45109;Laerm;30447;48.742;8.972;2023-09-07T03:28:25;39.87;36.69;42.53;;
45109;Laerm;30447;48.742;8.972;2023-09-07T03:30:54;39.84;34.69;42.65;;
45109;Laerm;30447;48.742;8.972;2023-09-07T03:33:22;39.91;36.45;44.23;;
45109;Laerm;30447;48.742;8.972;2023-09-07T03:35:48;39.37;36.20;41.82;;
45109;Laerm;30447;48.742;8.972;2023-09-07T03:38:15;40.08;36.45;43.09;;
45109;Laerm;30447;48.742;8.972;2023-09-07T03:40:42;40.13;36.69;43.72;;
45109;Laerm;30447;48.742;8.972;2023-09-07T03:43:09;40.02;36.69;44.80;;
45109;Laerm;30447;48.742;8.972;2023-09-07T03:45:36;40.35;36.91;44.80;;
45109;Laerm;30447;48.742;8.972;2023-09-07T03:48:03;41.10;37.87;45.33;;
45109;Laerm;30447;48.742;8.972;2023-09-07T03:50:29;40.16;36.91;42.53;;
45109;Laerm;30447;48.742;8.972;2023-09-07T03:52:56;40.63;37.52;43.72;;
45109;Laerm;30447;48.742;8.972;2023-09-07T03:55:23;40.61;37.52;44.19;;
45109;Laerm;30447;48.742;8.972;2023-09-07T03:57:50;40.52;37.12;43.24;;
45109;Laerm;30447;48.742;8.972;2023-09-07T04:00:17;40.51;36.91;43.72;;
45109;Laerm;30447;48.742;8.972;2023-09-07T04:02:44;40.87;36.20;44.15;;
45109;Laerm;30447;48.742;8.972;2023-09-07T04:05:11;40.86;37.88;48.91;;
45109;Laerm;30447;48.742;8.972;2023-09-07T04:07:38;41.30;38.37;45.63;;
45109;Laerm;30447;48.742;8.972;2023-09-07T04:10:06;41.32;38.37;43.81;;
45109;Laerm;30447;48.742;8.972;2023-09-07T04:12:32;41.25;38.05;58.89;;
45109;Laerm;30447;48.742;8.972;2023-09-07T04:15:02;41.75;38.95;45.80;;
45109;Laerm;30447;48.742;8.972;2023-09-07T04:17:29;41.83;39.34;46.05;;
45109;Laerm;30447;48.742;8.972;2023-09-07T04:19:56;42.04;39.08;46.52;;
45109;Laerm;30447;48.742;8.972;2023-09-07T04:22:22;41.69;39.21;43.86;;
45109;Laerm;30447;48.742;8.972;2023-09-07T04:24:49;41.35;38.37;44.23;;
45109;Laerm;30447;48.742;8.972;2023-09-07T04:27:16;40.93;37.88;43.34;;
45109;Laerm;30447;48.742;8.972;2023-09-07T04:29:42;41.76;38.95;50.23;;
45109;Laerm;30447;48.742;8.972;2023-09-07T04:32:09;41.20;38.52;49.85;;
45109;Laerm;30447;48.742;8.972;2023-09-07T04:34:35;41.45;38.52;45.36;;
45109;Laerm;30447;48.742;8.972;2023-09-07T04:37:02;41.24;38.67;44.35;;
45109;Laerm;30447;48.742;8.972;2023-09-07T04:39:29;41.02;36.91;43.58;;
45109;Laerm;30447;48.742;8.972;2023-09-07T04:41:55;41.70;38.21;55.35;;
45109;Laerm;30447;48.742;8.972;2023-09-07T04:44:22;41.75;38.95;46.25;;
45109;Laerm;30447;48.742;8.972;2023-09-07T04:46:48;40.94;38.37;42.88;;
45109;Laerm;30447;48.742;8.972;2023-09-07T04:49:16;42.13;38.67;51.56;;
45109;Laerm;30447;48.742;8.972;2023-09-07T04:51:43;41.37;38.67;49.33;;
45109;Laerm;30447;48.742;8.972;2023-09-07T04:54:09;42.34;38.95;58.34;;
45109;Laerm;30447;48.742;8.972;2023-09-07T04:56:36;42.22;39.58;53.23;;
45109;Laerm;30447;48.742;8.972;2023-09-07T04:59:02;42.73;39.92;52.49;;
45109;Laerm;30447;48.742;8.972;2023-09-07T05:01:29;43.30;40.03;48.63;;
45109;Laerm;30447;48.742;8.972;2023-09-07T05:03:55;42.43;39.89;50.30;;
45109;Laerm;30447;48.742;8.972;2023-09-07T05:06:22;42.86;39.58;55.61;;
45109;Laerm;30447;48.742;8.972;2023-09-07T05:08:52;42.08;39.34;61.34;;
45109;Laerm;30447;48.742;8.972;2023-09-07T05:11:19;42.96;39.81;52.72;;
45109;Laerm;30447;48.742;8.972;2023-09-07T05:13:45;42.31;39.58;49.27;;
45109;Laerm;30447;48.742;8.972;2023-09-07T05:16:12;42.38;39.34;49.58;;
45109;Laerm;30447;48.742;8.972;2023-09-07T05:18:41;42.60;39.70;49.16;;
45109;Laerm;30447;48.742;8.972;2023-09-07T05:21:16;42.79;40.33;49.11;;
45109;Laerm;30447;48.742;8.972;2023-09-07T05:23:43;42.74;40.23;55.72;;
45109;Laerm;30447;48.742;8.972;2023-09-07T05:26:10;44.82;39.34;64.83;;
45109;Laerm;30447;48.742;8.972;2023-09-07T05:28:36;42.63;39.89;56.20;;
45109;Laerm;30447;48.742;8.972;2023-09-07T05:31:03;45.29;39.81;59.46;;
45109;Laerm;30447;48.742;8.972;2023-09-07T05:33:30;42.29;39.46;54.75;;
45109;Laerm;30447;48.742;8.972;2023-09-07T05:35:56;41.94;39.23;51.26;;
45109;Laerm;30447;48.742;8.972;2023-09-07T05:38:23;42.57;39.92;51.84;;
45109;Laerm;30447;48.742;8.972;2023-09-07T05:40:50;42.08;39.34;56.49;;
45109;Laerm;30447;48.742;8.972;2023-09-07T05:43:20;42.32;39.70;57.47;;
45109;Laerm;30447;48.742;8.972;2023-09-07T05:45:47;42.07;39.34;52.09;;
45109;Laerm;30447;48.742;8.972;2023-09-07T05:48:14;42.60;39.70;47.10;;
45109;Laerm;30447;48.742;8.972;2023-09-07T05:50:44;42.45;39.81;52.33;;
45109;Laerm;30447;48.742;8.972;2023-09-07T05:53:11;42.35;39.81;53.38;;
45109;Laerm;30447;48.742;8.972;2023-09-07T05:55:38;41.97;39.21;49.69;;
45109;Laerm;30447;48.742;8.972;2023-09-07T05:58:07;42.18;39.34;50.17;;
45109;Laerm;30447;48.742;8.972;2023-09-07T06:00:35;41.85;38.81;46.95;;
45109;Laerm;30447;48.742;8.972;2023-09-07T06:03:02;41.77;39.21;53.21;;
45109;Laerm;30447;48.742;8.972;2023-09-07T06:05:29;44.53;38.52;73.91;;
45109;Laerm;30447;48.742;8.972;2023-09-07T06:07:56;41.44;38.81;49.35;;
45109;Laerm;30447;48.742;8.972;2023-09-07T06:10:23;41.27;38.52;45.51;;
45109;Laerm;30447;48.742;8.972;2023-09-07T06:12:49;41.43;38.52;49.45;;
45109;Laerm;30447;48.742;8.972;2023-09-07T06:15:16;41.43;38.95;44.54;;
45109;Laerm;30447;48.742;8.972;2023-09-07T06:17:43;41.23;38.05;52.81;;
45109;Laerm;30447;48.742;8.972;2023-09-07T06:20:10;40.65;37.70;50.46;;
45109;Laerm;30447;48.742;8.972;2023-09-07T06:22:36;40.58;37.12;44.94;;
45109;Laerm;30447;48.742;8.972;2023-09-07T06:25:03;41.41;37.70;49.70;;
45109;Laerm;30447;48.742;8.972;2023-09-07T06:27:30;40.84;36.91;53.81;;
45109;Laerm;30447;48.742;8.972;2023-09-07T06:29:56;40.70;37.12;51.11;;
45109;Laerm;30447;48.742;8.972;2023-09-07T06:32:23;40.92;38.05;51.98;;
45109;Laerm;30447;48.742;8.972;2023-09-07T06:34:50;42.20;37.52;54.25;;
45109;Laerm;30447;48.742;8.972;2023-09-07T06:37:17;41.08;36.69;52.72;;
45109;Laerm;30447;48.742;8.972;2023-09-07T06:39:44;41.17;37.52;51.38;;
45109;Laerm;30447;48.742;8.972;2023-09-07T06:42:10;40.81;35.94;53.79;;
45109;Laerm;30447;48.742;8.972;2023-09-07T06:44:37;41.43;37.12;55.01;;
45109;Laerm;30447;48.742;8.972;2023-09-07T06:47:04;39.97;35.94;47.91;;
45109;Laerm;30447;48.742;8.972;2023-09-07T06:49:30;40.08;36.45;46.52;;
45109;Laerm;30447;48.742;8.972;2023-09-07T06:51:57;41.47;36.69;50.88;;
45109;Laerm;30447;48.742;8.972;2023-09-07T06:54:23;40.29;36.45;50.85;;
45109;Laerm;30447;48.742;8.972;2023-09-07T06:56:50;40.03;36.45;43.34;;
45109;Laerm;30447;48.742;8.972;2023-09-07T06:59:17;40.64;35.94;47.91;;
45109;Laerm;30447;48.742;8.972;2023-09-07T07:01:43;40.78;36.20;47.63;;
45109;Laerm;30447;48.742;8.972;2023-09-07T07:04:10;39.95;34.31;46.50;;
45109;Laerm;30447;48.742;8.972;2023-09-07T07:06:36;41.40;35.04;65.30;;
45109;Laerm;30447;48.742;8.972;2023-09-07T07:09:05;40.74;35.94;50.04;;
45109;Laerm;30447;48.742;8.972;2023-09-07T07:11:32;41.18;36.45;47.48;;
45109;Laerm;30447;48.742;8.972;2023-09-07T07:13:58;40.32;36.20;50.19;;
45109;Laerm;30447;48.742;8.972;2023-09-07T07:16:25;40.19;37.12;45.80;;
45109;Laerm;30447;48.742;8.972;2023-09-07T07:18:52;41.15;36.45;46.69;;
45109;Laerm;30447;48.742;8.972;2023-09-07T07:21:18;39.89;35.36;46.57;;
45109;Laerm;30447;48.742;8.972;2023-09-07T07:23:45;39.62;34.69;52.80;;
45109;Laerm;30447;48.742;8.972;2023-09-07T07:26:11;50.54;36.45;77.37;;
45109;Laerm;30447;48.742;8.972;2023-09-07T07:28:38;40.86;35.66;49.10;;
45109;Laerm;30447;48.742;8.972;2023-09-07T07:31:09;41.61;35.94;49.63;;
45109;Laerm;30447;48.742;8.972;2023-09-07T07:33:36;39.94;35.94;48.55;;
45109;Laerm;30447;48.742;8.972;2023-09-07T07:36:04;40.44;36.45;55.76;;
45109;Laerm;30447;48.742;8.972;2023-09-07T07:38:31;40.19;35.66;51.94;;
45109;Laerm;30447;48.742;8.972;2023-09-07T07:40:58;40.02;35.94;50.63;;
45109;Laerm;30447;48.742;8.972;2023-09-07T07:43:24;40.59;36.20;54.85;;
45109;Laerm;30447;48.742;8.972;2023-09-07T07:45:54;40.00;36.45;55.62;;
45109;Laerm;30447;48.742;8.972;2023-09-07T07:48:20;39.71;35.04;53.45;;
45109;Laerm;30447;48.742;8.972;2023-09-07T07:50:47;39.46;35.94;50.77;;
45109;Laerm;30447;48.742;8.972;2023-09-07T07:53:13;39.94;35.66;55.87;;
45109;Laerm;30447;48.742;8.972;2023-09-07T07:55:41;44.63;36.91;60.97;;
45109;Laerm;30447;48.742;8.972;2023-09-07T07:58:09;39.77;35.36;49.91;;
45109;Laerm;30447;48.742;8.972;2023-09-07T08:00:37;39.70;35.94;56.55;;
45109;Laerm;30447;48.742;8.972;2023-09-07T08:03:05;44.58;36.45;58.49;;
45109;Laerm;30447;48.742;8.972;2023-09-07T08:05:35;39.77;34.69;46.02;;
45109;Laerm;30447;48.742;8.972;2023-09-07T08:08:01;39.93;35.36;45.54;;
45109;Laerm;30447;48.742;8.972;2023-09-07T08:10:29;40.43;35.36;44.51;;
45109;Laerm;30447;48.742;8.972;2023-09-07T08:12:56;44.63;35.36;65.12;;
45109;Laerm;30447;48.742;8.972;2023-09-07T08:15:23;39.92;35.66;49.70;;
45109;Laerm;30447;48.742;8.972;2023-09-07T08:17:51;40.13;36.20;47.02;;
45109;Laerm;30447;48.742;8.972;2023-09-07T08:20:18;39.57;35.94;44.62;;
45109;Laerm;30447;48.742;8.972;2023-09-07T08:22:45;40.10;35.36;45.51;;
45109;Laerm;30447;48.742;8.972;2023-09-07T08:25:13;40.46;35.94;45.94;;
45109;Laerm;30447;48.742;8.972;2023-09-07T08:27:41;39.39;35.66;46.64;;
45109;Laerm;30447;48.742;8.972;2023-09-07T08:30:15;40.02;35.86;50.40;;
45109;Laerm;30447;48.742;8.972;2023-09-07T08:32:44;40.27;35.36;54.39;;
45109;Laerm;30447;48.742;8.972;2023-09-07T08:35:12;39.37;35.36;54.51;;
45109;Laerm;30447;48.742;8.972;2023-09-07T08:37:40;42.49;35.94;58.73;;
45109;Laerm;30447;48.742;8.972;2023-09-07T08:40:08;41.81;35.36;65.02;;
45109;Laerm;30447;48.742;8.972;2023-09-07T08:42:36;40.35;35.36;62.10;;
45109;Laerm;30447;48.742;8.972;2023-09-07T08:45:04;46.30;35.31;61.43;;
45109;Laerm;30447;48.742;8.972;2023-09-07T08:47:37;39.30;35.36;47.26;;
45109;Laerm;30447;48.742;8.972;2023-09-07T08:50:06;39.90;35.66;52.78;;
45109;Laerm;30447;48.742;8.972;2023-09-07T08:52:34;38.88;34.69;54.43;;
45109;Laerm;30447;48.742;8.972;2023-09-07T08:55:02;39.61;35.66;43.68;;
45109;Laerm;30447;48.742;8.972;2023-09-07T08:57:32;39.37;33.97;51.97;;
45109;Laerm;30447;48.742;8.972;2023-09-07T08:59:59;39.48;34.31;48.90;;
45109;Laerm;30447;48.742;8.972;2023-09-07T09:02:26;39.39;34.69;42.76;;
45109;Laerm;30447;48.742;8.972;2023-09-07T09:04:53;39.16;35.04;44.11;;
45109;Laerm;30447;48.742;8.972;2023-09-07T09:07:20;39.57;35.04;51.84;;
45109;Laerm;30447;48.742;8.972;2023-09-07T09:09:47;39.37;34.69;53.16;;
45109;Laerm;30447;48.742;8.972;2023-09-07T09:12:14;39.03;34.69;52.76;;
45109;Laerm;30447;48.742;8.972;2023-09-07T09:14:44;39.19;35.04;54.43;;
45109;Laerm;30447;48.742;8.972;2023-09-07T09:17:15;39.29;35.04;55.24;;
45109;Laerm;30447;48.742;8.972;2023-09-07T09:19:42;41.51;34.31;61.10;;
45109;Laerm;30447;48.742;8.972;2023-09-07T09:22:10;41.08;34.69;54.76;;
45109;Laerm;30447;48.742;8.972;2023-09-07T09:24:38;38.96;35.04;44.90;;
45109;Laerm;30447;48.742;8.972;2023-09-07T09:27:04;39.01;34.69;45.07;;
45109;Laerm;30447;48.742;8.972;2023-09-07T09:29:35;39.48;33.90;47.67;;
45109;Laerm;30447;48.742;8.972;2023-09-07T09:32:07;39.43;35.04;54.20;;
45109;Laerm;30447;48.742;8.972;2023-09-07T09:34:35;42.83;35.36;61.77;;
45109;Laerm;30447;48.742;8.972;2023-09-07T09:37:03;48.29;34.69;66.38;;
45109;Laerm;30447;48.742;8.972;2023-09-07T09:39:30;39.89;35.04;57.27;;
45109;Laerm;30447;48.742;8.972;2023-09-07T09:41:57;43.97;35.66;59.08;;
45109;Laerm;30447;48.742;8.972;2023-09-07T09:44:28;39.74;34.69;52.83;;
45109;Laerm;30447;48.742;8.972;2023-09-07T09:46:55;39.18;33.44;54.53;;
45109;Laerm;30447;48.742;8.972;2023-09-07T09:49:23;38.32;33.90;45.83;;
45109;Laerm;30447;48.742;8.972;2023-09-07T09:51:50;38.43;33.90;47.08;;
45109;Laerm;30447;48.742;8.972;2023-09-07T09:54:20;38.73;34.69;43.58;;
45109;Laerm;30447;48.742;8.972;2023-09-07T09:56:47;38.75;34.69;43.39;;
45109;Laerm;30447;48.742;8.972;2023-09-07T09:59:14;38.86;33.90;43.19;;
45109;Laerm;30447;48.742;8.972;2023-09-07T10:01:47;38.77;34.69;42.88;;
45109;Laerm;30447;48.742;8.972;2023-09-07T10:04:17;38.90;34.69;42.03;;
45109;Laerm;30447;48.742;8.972;2023-09-07T10:06:58;38.72;34.69;44.03;;
45109;Laerm;30447;48.742;8.972;2023-09-07T10:09:35;38.22;34.31;44.90;;
45109;Laerm;30447;48.742;8.972;2023-09-07T10:12:03;38.88;33.90;48.69;;
45109;Laerm;30447;48.742;8.972;2023-09-07T10:14:42;44.47;35.36;64.54;;
45109;Laerm;30447;48.742;8.972;2023-09-07T10:17:08;41.99;33.90;52.76;;
45109;Laerm;30447;48.742;8.972;2023-09-07T10:19:36;41.15;34.69;55.06;;
45109;Laerm;30447;48.742;8.972;2023-09-07T10:22:04;40.13;35.36;59.52;;
45109;Laerm;30447;48.742;8.972;2023-09-07T10:24:33;39.75;34.31;51.66;;
45109;Laerm;30447;48.742;8.972;2023-09-07T10:27:09;40.92;35.04;52.06;;
45109;Laerm;30447;48.742;8.972;2023-09-07T10:29:49;42.99;34.31;66.80;;
45109;Laerm;30447;48.742;8.972;2023-09-07T10:32:17;38.76;32.93;52.09;;
45109;Laerm;30447;48.742;8.972;2023-09-07T10:34:43;39.62;34.69;58.06;;
45109;Laerm;30447;48.742;8.972;2023-09-07T10:37:11;38.54;34.31;47.54;;
45109;Laerm;30447;48.742;8.972;2023-09-07T10:39:41;39.15;35.04;45.72;;
45109;Laerm;30447;48.742;8.972;2023-09-07T10:42:21;38.49;34.31;48.91;;
45109;Laerm;30447;48.742;8.972;2023-09-07T10:44:48;38.85;33.44;46.78;;
45109;Laerm;30447;48.742;8.972;2023-09-07T10:47:15;38.57;33.44;45.39;;
45109;Laerm;30447;48.742;8.972;2023-09-07T10:49:42;38.21;33.44;43.34;;
45109;Laerm;30447;48.742;8.972;2023-09-07T10:52:09;38.45;34.31;48.58;;
45109;Laerm;30447;48.742;8.972;2023-09-07T10:54:36;38.09;33.90;45.91;;
45109;Laerm;30447;48.742;8.972;2023-09-07T10:57:11;39.27;33.55;47.93;;
45109;Laerm;30447;48.742;8.972;2023-09-07T10:59:45;39.73;34.69;49.43;;
45109;Laerm;30447;48.742;8.972;2023-09-07T11:02:12;38.72;34.31;48.64;;
45109;Laerm;30447;48.742;8.972;2023-09-07T11:04:38;41.73;33.90;53.81;;
45109;Laerm;30447;48.742;8.972;2023-09-07T11:07:06;38.87;33.90;46.02;;
45109;Laerm;30447;48.742;8.972;2023-09-07T11:09:33;38.24;34.31;50.33;;
45109;Laerm;30447;48.742;8.972;2023-09-07T11:12:06;40.24;34.69;47.79;;
45109;Laerm;30447;48.742;8.972;2023-09-07T11:14:34;38.79;33.90;44.87;;
45109;Laerm;30447;48.742;8.972;2023-09-07T11:17:01;37.97;32.93;51.70;;
45109;Laerm;30447;48.742;8.972;2023-09-07T11:19:33;39.14;35.36;43.39;;
45109;Laerm;30447;48.742;8.972;2023-09-07T11:22:00;38.93;34.31;45.89;;
45109;Laerm;30447;48.742;8.972;2023-09-07T11:24:27;38.81;34.34;45.36;;
45109;Laerm;30447;48.742;8.972;2023-09-07T11:26:53;39.33;35.66;48.43;;
45109;Laerm;30447;48.742;8.972;2023-09-07T11:29:22;38.95;35.66;48.95;;
45109;Laerm;30447;48.742;8.972;2023-09-07T11:31:49;39.45;34.69;48.26;;
45109;Laerm;30447;48.742;8.972;2023-09-07T11:34:16;39.63;35.04;48.28;;
45109;Laerm;30447;48.742;8.972;2023-09-07T11:36:43;42.29;34.69;55.76;;
45109;Laerm;30447;48.742;8.972;2023-09-07T11:39:10;38.90;35.36;48.03;;
45109;Laerm;30447;48.742;8.972;2023-09-07T11:41:43;39.67;35.94;46.66;;
45109;Laerm;30447;48.742;8.972;2023-09-07T11:44:11;39.11;34.31;48.10;;
45109;Laerm;30447;48.742;8.972;2023-09-07T11:46:39;41.43;35.04;53.99;;
45109;Laerm;30447;48.742;8.972;2023-09-07T11:49:05;38.81;35.36;49.06;;
45109;Laerm;30447;48.742;8.972;2023-09-07T11:51:33;38.53;34.31;50.12;;
45109;Laerm;30447;48.742;8.972;2023-09-07T11:54:02;37.90;32.93;44.62;;
45109;Laerm;30447;48.742;8.972;2023-09-07T11:56:29;40.33;35.36;60.68;;
45109;Laerm;30447;48.742;8.972;2023-09-07T11:58:57;38.80;35.66;46.25;;
45109;Laerm;30447;48.742;8.972;2023-09-07T12:01:24;39.19;35.36;44.23;;
45109;Laerm;30447;48.742;8.972;2023-09-07T12:03:50;39.08;34.31;51.26;;
45109;Laerm;30447;48.742;8.972;2023-09-07T12:06:17;38.28;33.90;45.20;;
45109;Laerm;30447;48.742;8.972;2023-09-07T12:09:00;38.66;34.69;48.37;;
45109;Laerm;30447;48.742;8.972;2023-09-07T12:11:26;38.32;33.90;48.48;;
45109;Laerm;30447;48.742;8.972;2023-09-07T12:13:53;38.38;33.90;41.06;;
45109;Laerm;30447;48.742;8.972;2023-09-07T12:16:20;38.60;34.31;54.51;;
45109;Laerm;30447;48.742;8.972;2023-09-07T12:18:46;38.40;33.90;43.99;;
45109;Laerm;30447;48.742;8.972;2023-09-07T12:21:13;42.52;33.90;63.40;;
45109;Laerm;30447;48.742;8.972;2023-09-07T12:23:40;38.74;35.04;45.72;;
45109;Laerm;30447;48.742;8.972;2023-09-07T12:26:06;38.29;34.31;54.16;;
45109;Laerm;30447;48.742;8.972;2023-09-07T12:28:33;39.21;35.04;47.91;;
45109;Laerm;30447;48.742;8.972;2023-09-07T12:31:00;39.01;34.69;43.68;;
45109;Laerm;30447;48.742;8.972;2023-09-07T12:33:26;40.58;34.69;68.93;;
45109;Laerm;30447;48.742;8.972;2023-09-07T12:35:55;39.64;35.04;50.97;;
45109;Laerm;30447;48.742;8.972;2023-09-07T12:38:22;39.34;34.69;51.93;;
45109;Laerm;30447;48.742;8.972;2023-09-07T12:40:54;40.77;35.04;53.89;;
45109;Laerm;30447;48.742;8.972;2023-09-07T12:43:20;39.43;34.31;50.17;;
45109;Laerm;30447;48.742;8.972;2023-09-07T12:45:47;38.49;34.31;45.89;;
45109;Laerm;30447;48.742;8.972;2023-09-07T12:48:14;39.59;33.44;55.08;;
45109;Laerm;30447;48.742;8.972;2023-09-07T12:50:40;39.14;33.90;59.41;;
45109;Laerm;30447;48.742;8.972;2023-09-07T12:53:07;38.82;34.69;51.91;;
45109;Laerm;30447;48.742;8.972;2023-09-07T12:55:34;38.98;34.69;49.74;;
45109;Laerm;30447;48.742;8.972;2023-09-07T12:58:00;39.84;34.31;54.14;;
45109;Laerm;30447;48.742;8.972;2023-09-07T13:00:28;41.12;35.66;51.24;;
45109;Laerm;30447;48.742;8.972;2023-09-07T13:02:55;39.35;34.69;55.59;;
45109;Laerm;30447;48.742;8.972;2023-09-07T13:05:22;38.68;34.31;54.86;;
45109;Laerm;30447;48.742;8.972;2023-09-07T13:07:49;39.20;35.04;58.70;;
45109;Laerm;30447;48.742;8.972;2023-09-07T13:10:15;39.11;33.90;48.73;;
45109;Laerm;30447;48.742;8.972;2023-09-07T13:12:42;41.64;35.04;61.42;;
45109;Laerm;30447;48.742;8.972;2023-09-07T13:15:09;40.29;34.69;60.16;;
45109;Laerm;30447;48.742;8.972;2023-09-07T13:17:36;41.98;35.04;55.76;;
45109;Laerm;30447;48.742;8.972;2023-09-07T13:20:03;40.68;34.69;61.42;;
45109;Laerm;30447;48.742;8.972;2023-09-07T13:22:30;39.14;33.90;51.67;;
45109;Laerm;30447;48.742;8.972;2023-09-07T13:24:57;40.84;33.44;54.65;;
45109;Laerm;30447;48.742;8.972;2023-09-07T13:27:23;39.22;34.69;52.48;;
45109;Laerm;30447;48.742;8.972;2023-09-07T13:29:52;39.49;34.69;63.25;;
45109;Laerm;30447;48.742;8.972;2023-09-07T13:32:18;39.65;35.04;52.41;;
45109;Laerm;30447;48.742;8.972;2023-09-07T13:34:45;39.75;35.36;49.90;;
45109;Laerm;30447;48.742;8.972;2023-09-07T13:37:12;40.01;35.66;55.28;;
45109;Laerm;30447;48.742;8.972;2023-09-07T13:39:38;39.58;35.94;52.67;;
45109;Laerm;30447;48.742;8.972;2023-09-07T13:42:05;40.53;35.04;58.11;;
45109;Laerm;30447;48.742;8.972;2023-09-07T13:44:31;41.59;37.12;57.89;;
45109;Laerm;30447;48.742;8.972;2023-09-07T13:46:58;40.89;35.04;53.73;;